Hibbing, MN

1:49 AM CDT on April 24, 2017 (GMT -0500)
Chisholm-hibbing | | Change Station

Elev 1352 ft 47.39 °N, 92.84 °W | Updated 56 minutes ago

Overcast
Overcast
30 °F
Feels Like 20 °F
N
13
Wind Variable Wind from East

Today
High -- | Low -- °F
--% Chance of Precip.
Yesterday
High -- | Low -- °F
Precip. -- in
Pressure 30.06 in
Visibility 10.0 miles
Clouds Mostly Cloudy 5500 ft
Mostly Cloudy 7500 ft
Overcast 9500 ft
Windchill 20 °F
Dew Point 26 °F
Humidity 85%
Rainfall 0.00 in
Snow Depth Not available.
6:06 AM 8:14 PM
Waning Crescent, 7% visible
METAR KHIB 240553Z AUTO 10011KT 10SM BKN055 BKN075 OVC095 M01/M03 A3000 RMK AO2 UPB07E21 SLP178 P0000 60000 T10111033 10011 21011 400331017 58015
Pressure 30.06 in
Visibility 10.0 miles
Clouds Mostly Cloudy 5500 ft
Mostly Cloudy 7500 ft
Overcast 9500 ft
Windchill 20 °F
Dew Point 26 °F
Humidity 85%
Rainfall 0.00 in
Snow Depth Not available.
6:06 AM 8:14 PM
Waning Crescent, 7% visible
METAR KHIB 240553Z AUTO 10011KT 10SM BKN055 BKN075 OVC095 M01/M03 A3000 RMK AO2 UPB07E21 SLP178 P0000 60000 T10111033 10011 21011 400331017 58015

Get Severe Weather Alerts

Thanks for signing up!

Be on the lookout for a verification email in your inbox.

You'll start receiving the daily forecast at 8 AM.

×

10-Day Weather Forecast

Almanac

Astronomy

Apr. 24, 2017 Rise Set
Actual Time
Civil Twilight
Nautical Twilight
Astronomical Twilight
Moon
Length of Visible Light
Length of Day
Tomorrow will be .
, % of the Moon is Illuminated

Today's Extremes

State Highs State Lows

Community

WunderPhotos

WunderBlog® & News

Nearby

Air Quality

  Air Quality AQ Index Pollutant
Not available.

Snow Depth

Station Depth Elevation

Earthquake Activity

City Distance Mag. Time & Date
Minimum magnitude displayed is 2.5.

Coastal Water Temperatures

Place Temperature

Stations

Nearby Weather Stations

Station Location Temp. Windchill Dew Point Humidity Wind Precip. Elev Updated Type
                   

Watches & Warnings

There are currently no watches in effect.